createdAt,value
2023-03-08T00:00:21.084Z,7.70
2023-03-08T00:02:47.954Z,7.72
2023-03-08T00:05:14.663Z,7.82
2023-03-08T00:07:41.757Z,7.65
2023-03-08T00:10:09.581Z,7.40
2023-03-08T00:12:36.546Z,7.03
2023-03-08T00:15:03.241Z,7.22
2023-03-08T00:17:29.747Z,8.35
2023-03-08T00:19:56.224Z,7.97
2023-03-08T00:22:24.105Z,8.10
2023-03-08T00:24:53.803Z,7.63
2023-03-08T00:27:20.235Z,8.10
2023-03-08T00:29:46.977Z,8.32
2023-03-08T00:32:13.523Z,7.32
2023-03-08T00:34:40.126Z,7.40
2023-03-08T00:37:06.572Z,8.27
2023-03-08T00:39:33.365Z,7.70
2023-03-08T00:41:59.721Z,8.88
2023-03-08T00:44:26.355Z,8.55
2023-03-08T00:46:52.790Z,8.00
2023-03-08T00:49:19.283Z,8.43
2023-03-08T00:51:47.048Z,8.63
2023-03-08T00:54:13.639Z,9.68
2023-03-08T00:56:40.301Z,8.90
2023-03-08T00:59:06.981Z,8.32
2023-03-08T01:01:34.762Z,8.15
2023-03-08T01:04:02.365Z,7.53
2023-03-08T01:06:29.861Z,8.23
2023-03-08T01:08:56.339Z,8.30
2023-03-08T01:11:25.555Z,8.38
2023-03-08T01:13:53.668Z,9.10
2023-03-08T01:16:23.246Z,9.32
2023-03-08T01:18:50.045Z,8.35
2023-03-08T01:21:18.710Z,9.63
2023-03-08T01:23:47.052Z,9.18
2023-03-08T01:26:21.842Z,7.97
2023-03-08T01:28:49.158Z,9.48
2023-03-08T01:31:17.960Z,8.60
2023-03-08T01:33:45.155Z,9.10
2023-03-08T01:36:14.649Z,10.00
2023-03-08T01:38:41.837Z,9.10
2023-03-08T01:41:13.929Z,8.50
2023-03-08T01:43:40.410Z,8.18
2023-03-08T01:46:28.161Z,8.68
2023-03-08T01:48:56.552Z,8.90
2023-03-08T01:51:34.012Z,8.75
2023-03-08T01:54:06.820Z,10.68
2023-03-08T01:56:35.675Z,10.00
2023-03-08T01:59:03.066Z,11.87
2023-03-08T02:01:29.872Z,11.90
2023-03-08T02:03:56.587Z,10.98
2023-03-08T02:06:23.231Z,11.02
2023-03-08T02:08:51.306Z,10.63
2023-03-08T02:11:20.039Z,11.70
2023-03-08T02:13:47.372Z,9.68
2023-03-08T02:16:16.390Z,11.23
2023-03-08T02:18:57.957Z,11.65
2023-03-08T02:21:25.322Z,9.45
2023-03-08T02:23:52.114Z,10.23
2023-03-08T02:26:19.119Z,11.23
2023-03-08T02:28:46.191Z,9.60
2023-03-08T02:31:14.326Z,11.60
2023-03-08T02:33:41.375Z,9.70
2023-03-08T02:36:08.835Z,10.83
2023-03-08T02:38:35.695Z,10.60
2023-03-08T02:41:02.147Z,8.80
2023-03-08T02:43:31.908Z,9.67
2023-03-08T02:45:58.653Z,11.15
2023-03-08T02:48:25.441Z,9.83
2023-03-08T02:50:52.096Z,9.25
2023-03-08T02:53:18.514Z,8.23
2023-03-08T02:55:44.999Z,9.13
2023-03-08T02:58:11.971Z,9.33
2023-03-08T03:00:38.792Z,8.68
2023-03-08T03:03:06.436Z,9.47
2023-03-08T03:05:33.049Z,9.00
2023-03-08T03:08:00.592Z,8.43
2023-03-08T03:10:27.907Z,9.87
2023-03-08T03:12:54.296Z,9.65
2023-03-08T03:15:20.891Z,9.32
2023-03-08T03:17:47.256Z,9.43
2023-03-08T03:20:15.286Z,9.45
2023-03-08T03:22:41.744Z,8.52
2023-03-08T03:25:08.960Z,8.68
2023-03-08T03:27:35.832Z,10.05
2023-03-08T03:30:02.715Z,9.30
2023-03-08T03:32:29.350Z,10.13
2023-03-08T03:34:55.733Z,9.10
2023-03-08T03:37:25.835Z,9.80
2023-03-08T03:39:52.217Z,8.90
2023-03-08T03:42:19.300Z,8.40
2023-03-08T03:44:46.082Z,9.10
2023-03-08T03:47:12.589Z,9.10
2023-03-08T03:49:39.166Z,7.97
2023-03-08T03:52:06.568Z,8.15
2023-03-08T03:54:33.269Z,8.33
2023-03-08T03:56:59.678Z,8.13
2023-03-08T03:59:29.091Z,8.10
2023-03-08T04:01:55.514Z,9.07
2023-03-08T04:04:22.503Z,7.75
2023-03-08T04:06:49.079Z,8.48
2023-03-08T04:09:17.394Z,8.23
2023-03-08T04:11:44.150Z,8.65
2023-03-08T04:14:10.616Z,7.77
2023-03-08T04:16:39.251Z,8.50
2023-03-08T04:19:09.959Z,8.57
2023-03-08T04:21:36.641Z,9.40
2023-03-08T04:24:04.688Z,8.80
2023-03-08T04:26:32.010Z,8.02
2023-03-08T04:28:58.431Z,8.73
2023-03-08T04:31:28.108Z,9.23
2023-03-08T04:33:58.273Z,8.55
2023-03-08T04:36:25.505Z,8.48
2023-03-08T04:38:52.211Z,8.27
2023-03-08T04:41:19.839Z,9.23
2023-03-08T04:43:48.105Z,8.82
2023-03-08T04:46:16.024Z,10.00
2023-03-08T04:48:43.056Z,9.90
2023-03-08T04:51:12.952Z,9.27
2023-03-08T04:53:39.619Z,9.73
2023-03-08T04:56:06.609Z,9.35
2023-03-08T04:58:33.194Z,9.38
2023-03-08T05:00:59.658Z,8.88
2023-03-08T05:03:26.334Z,9.68
2023-03-08T05:05:55.902Z,9.00
2023-03-08T05:08:23.695Z,9.63
2023-03-08T05:10:55.372Z,9.50
2023-03-08T05:13:21.872Z,8.85
2023-03-08T05:15:48.273Z,9.88
2023-03-08T05:18:14.840Z,9.05
2023-03-08T05:20:41.531Z,9.70
2023-03-08T05:23:10.867Z,10.18
2023-03-08T05:25:44.783Z,8.65
2023-03-08T05:28:11.375Z,11.02
2023-03-08T05:30:37.921Z,10.23
2023-03-08T05:33:04.678Z,10.73
2023-03-08T05:35:31.158Z,12.48
2023-03-08T05:37:57.717Z,12.43
2023-03-08T05:40:24.542Z,11.68
2023-03-08T05:42:51.170Z,12.13
2023-03-08T05:45:18.467Z,13.05
2023-03-08T05:47:44.840Z,12.77
2023-03-08T05:50:12.024Z,13.13
2023-03-08T05:52:40.953Z,11.77
2023-03-08T05:55:07.933Z,10.88
2023-03-08T05:57:34.386Z,11.93
2023-03-08T06:00:00.723Z,11.23
2023-03-08T06:02:28.996Z,9.98
2023-03-08T06:04:55.389Z,10.57
2023-03-08T06:07:21.790Z,11.10
2023-03-08T06:09:48.261Z,11.37
2023-03-08T06:12:14.647Z,10.10
2023-03-08T06:14:41.173Z,10.52
2023-03-08T06:17:07.646Z,11.65
2023-03-08T06:19:37.081Z,10.85
2023-03-08T06:22:03.581Z,10.57
2023-03-08T06:24:31.263Z,10.85
2023-03-08T06:26:57.741Z,12.30
2023-03-08T06:29:24.238Z,10.48
2023-03-08T06:31:50.707Z,10.53
2023-03-08T06:34:18.848Z,11.25
2023-03-08T06:36:45.381Z,10.48
2023-03-08T06:39:11.770Z,10.85
2023-03-08T06:41:38.466Z,10.23
2023-03-08T06:44:10.180Z,9.73
2023-03-08T06:46:36.627Z,10.50
2023-03-08T06:49:03.323Z,8.98
2023-03-08T06:51:29.757Z,11.38
2023-03-08T06:53:56.236Z,10.35
2023-03-08T06:56:22.611Z,10.35
2023-03-08T06:58:49.129Z,11.15
2023-03-08T07:01:15.812Z,10.90
2023-03-08T07:03:42.384Z,11.15
2023-03-08T07:06:09.952Z,11.27
2023-03-08T07:08:37.536Z,12.40
2023-03-08T07:11:04.730Z,10.43
2023-03-08T07:13:31.232Z,12.82
2023-03-08T07:15:57.872Z,11.75
2023-03-08T07:18:25.112Z,12.20
2023-03-08T07:21:00.584Z,13.25
2023-03-08T07:23:27.330Z,14.02
2023-03-08T07:25:53.916Z,12.63
2023-03-08T07:31:02.272Z,12.02
2023-03-08T07:33:28.696Z,12.30
2023-03-08T07:35:55.159Z,12.88
2023-03-08T07:38:21.980Z,13.23
2023-03-08T07:40:54.659Z,14.32
2023-03-08T07:43:21.525Z,15.90
2023-03-08T07:45:48.044Z,15.98
2023-03-08T07:48:14.901Z,13.48
2023-03-08T07:50:41.459Z,13.63
2023-03-08T07:53:09.395Z,12.70
2023-03-08T07:55:37.337Z,12.90
2023-03-08T07:58:03.875Z,13.68
2023-03-08T08:00:30.674Z,13.25
2023-03-08T08:02:57.104Z,12.43
2023-03-08T08:05:24.243Z,14.00
2023-03-08T08:07:50.966Z,12.57
2023-03-08T08:10:17.599Z,12.88
2023-03-08T08:12:44.091Z,12.02
2023-03-08T08:15:11.151Z,13.13
2023-03-08T08:17:37.598Z,12.80
2023-03-08T08:20:04.430Z,13.00
2023-03-08T08:22:30.869Z,16.02
2023-03-08T08:24:57.338Z,14.02
2023-03-08T08:27:24.420Z,14.18
2023-03-08T08:29:52.516Z,16.23
2023-03-08T08:32:20.589Z,15.07
2023-03-08T08:34:47.174Z,14.18
2023-03-08T08:37:13.728Z,14.77
2023-03-08T08:39:40.236Z,14.60
2023-03-08T08:42:07.139Z,14.63
2023-03-08T08:44:34.200Z,14.95
2023-03-08T08:47:01.883Z,15.02
2023-03-08T08:49:28.497Z,14.00
2023-03-08T08:51:54.886Z,15.27
2023-03-08T08:54:22.885Z,13.73
2023-03-08T08:56:49.356Z,15.05
2023-03-08T08:59:15.718Z,14.23
2023-03-08T09:01:42.183Z,13.30
2023-03-08T09:04:09.217Z,14.02
2023-03-08T09:06:35.840Z,14.13
2023-03-08T09:09:02.385Z,13.73
2023-03-08T09:11:28.970Z,12.30
2023-03-08T09:13:56.077Z,13.48
2023-03-08T09:16:29.519Z,12.02
2023-03-08T09:18:57.620Z,12.30
2023-03-08T09:21:26.189Z,12.18
2023-03-08T09:23:52.797Z,12.40
2023-03-08T09:26:19.409Z,14.55
2023-03-08T09:28:46.519Z,15.77
2023-03-08T09:31:16.274Z,15.75
2023-03-08T09:33:45.900Z,12.85
2023-03-08T09:36:12.968Z,14.27
2023-03-08T09:38:39.870Z,12.95
2023-03-08T09:41:17.620Z,13.15
2023-03-08T09:43:51.989Z,13.02
2023-03-08T09:46:27.382Z,12.77
2023-03-08T09:48:55.914Z,11.88
2023-03-08T09:51:27.038Z,11.77
2023-03-08T09:54:02.555Z,11.55
2023-03-08T09:56:41.385Z,11.75
2023-03-08T09:59:17.441Z,14.25
2023-03-08T10:01:54.158Z,10.93
2023-03-08T10:04:27.356Z,11.90
2023-03-08T10:07:20.207Z,11.63
2023-03-08T10:10:02.381Z,12.23
2023-03-08T10:12:43.728Z,11.35
2023-03-08T10:15:19.808Z,10.20
2023-03-08T10:17:58.003Z,10.45
2023-03-08T10:20:28.154Z,9.98
2023-03-08T10:22:59.466Z,10.40
2023-03-08T10:25:34.398Z,10.82
2023-03-08T10:28:03.404Z,9.88
2023-03-08T10:30:36.242Z,10.23
2023-03-08T10:33:08.615Z,9.50
2023-03-08T10:35:52.638Z,11.50
2023-03-08T10:38:19.328Z,9.45
2023-03-08T10:40:46.771Z,9.68
2023-03-08T10:43:40.448Z,9.25
2023-03-08T10:46:18.735Z,9.77
2023-03-08T10:48:51.594Z,11.40
2023-03-08T10:51:28.829Z,9.30
2023-03-08T10:54:00.620Z,8.38
2023-03-08T10:56:40.438Z,8.05
2023-03-08T10:59:17.949Z,8.60
2023-03-08T11:01:54.823Z,8.82
2023-03-08T11:04:27.585Z,7.93
2023-03-08T11:06:54.560Z,7.93
2023-03-08T11:09:27.066Z,6.72
2023-03-08T11:11:55.639Z,8.27
2023-03-08T11:14:26.127Z,7.10
2023-03-08T11:17:01.083Z,7.32
2023-03-08T11:19:34.872Z,6.50
2023-03-08T11:22:21.473Z,7.63
2023-03-08T11:25:02.190Z,6.65
2023-03-08T11:28:05.525Z,7.30
2023-03-08T11:33:59.049Z,8.18
2023-03-08T11:36:50.884Z,2.78
2023-03-08T11:39:26.891Z,3.10
2023-03-08T11:42:03.889Z,2.30
2023-03-08T11:45:07.465Z,2.10
2023-03-08T11:47:56.589Z,2.40
2023-03-08T11:50:37.673Z,2.13
2023-03-08T11:53:33.549Z,1.33
2023-03-08T11:56:35.253Z,2.08
2023-03-08T11:59:01.950Z,1.20
2023-03-08T12:02:09.401Z,1.75
2023-03-08T12:04:58.005Z,2.72
2023-03-08T12:07:34.002Z,1.05
2023-03-08T12:10:12.888Z,1.00
2023-03-08T12:12:49.731Z,1.60
2023-03-08T12:15:33.906Z,2.55
2023-03-08T12:18:15.922Z,0.77
2023-03-08T12:20:45.393Z,0.98
2023-03-08T12:24:03.808Z,1.30
2023-03-08T12:26:39.954Z,1.25
2023-03-08T12:29:28.016Z,1.17
2023-03-08T12:31:54.663Z,1.30
2023-03-08T12:34:36.497Z,1.15
2023-03-08T12:37:04.343Z,0.88
2023-03-08T12:39:36.773Z,1.50
2023-03-08T12:42:12.069Z,1.73
2023-03-08T12:44:39.627Z,1.23
2023-03-08T12:47:15.093Z,1.38
2023-03-08T12:49:49.901Z,2.10
2023-03-08T12:52:19.435Z,0.80
2023-03-08T12:54:57.414Z,1.23
2023-03-08T12:57:32.802Z,1.00
2023-03-08T13:00:08.515Z,1.20
2023-03-08T13:02:35.753Z,0.50
2023-03-08T13:05:36.612Z,0.93
2023-03-08T13:08:15.495Z,1.05
2023-03-08T13:10:59.243Z,1.42
2023-03-08T13:13:46.968Z,1.10
2023-03-08T13:16:29.993Z,1.00
2023-03-08T13:19:17.359Z,0.88
2023-03-08T13:22:11.295Z,1.80
2023-03-08T13:24:47.533Z,1.13
2023-03-08T13:27:26.769Z,1.52
2023-03-08T13:29:53.588Z,1.48
2023-03-08T13:32:24.045Z,1.85
2023-03-08T13:35:02.313Z,1.40
2023-03-08T13:37:30.317Z,0.50
2023-03-08T13:39:59.671Z,0.50
2023-03-08T13:42:28.819Z,0.90
2023-03-08T13:45:10.720Z,0.60
2023-03-08T13:47:38.855Z,0.70
2023-03-08T13:50:18.108Z,0.68
2023-03-08T13:52:45.015Z,1.08
2023-03-08T13:55:21.404Z,0.73
2023-03-08T13:57:51.219Z,0.90
2023-03-08T14:00:28.920Z,0.95
2023-03-08T14:02:56.326Z,0.70
2023-03-08T14:05:27.554Z,0.88
2023-03-08T14:07:59.010Z,1.05
2023-03-08T14:10:32.422Z,0.60
2023-03-08T14:12:59.250Z,0.90
2023-03-08T14:15:26.009Z,0.70
2023-03-08T14:17:53.282Z,1.58
2023-03-08T14:20:22.432Z,1.42
2023-03-08T14:22:52.546Z,1.20
2023-03-08T14:25:28.212Z,1.05
2023-03-08T14:27:55.432Z,0.60
2023-03-08T14:30:28.322Z,0.40
2023-03-08T14:33:15.962Z,1.00
2023-03-08T14:35:51.735Z,0.90
2023-03-08T14:38:24.247Z,0.52
2023-03-08T14:40:51.423Z,0.60
2023-03-08T14:43:21.744Z,1.00
2023-03-08T14:46:06.131Z,0.60
2023-03-08T14:48:35.380Z,0.85
2023-03-08T14:51:17.183Z,3.25
2023-03-08T14:53:43.712Z,1.52
2023-03-08T14:56:17.249Z,1.10
2023-03-08T14:58:49.668Z,0.73
2023-03-08T15:01:32.143Z,0.60
2023-03-08T15:03:59.484Z,0.73
2023-03-08T15:06:32.562Z,0.60
2023-03-08T15:09:05.514Z,1.15
2023-03-08T15:11:32.161Z,0.90
2023-03-08T15:14:04.300Z,0.75
2023-03-08T15:16:33.187Z,0.60
2023-03-08T15:18:59.761Z,0.65
2023-03-08T15:21:30.924Z,0.60
2023-03-08T15:23:58.985Z,0.77
2023-03-08T15:26:29.038Z,1.00
2023-03-08T15:28:55.681Z,0.65
2023-03-08T15:31:22.199Z,0.60
2023-03-08T15:33:49.929Z,4.10
2023-03-08T15:36:19.013Z,1.40
2023-03-08T15:38:46.996Z,0.90
2023-03-08T15:41:15.236Z,0.70
2023-03-08T15:43:41.974Z,0.60
2023-03-08T15:46:13.305Z,0.60
2023-03-08T15:48:42.019Z,0.50
2023-03-08T15:51:19.337Z,0.60
2023-03-08T15:53:46.417Z,0.65
2023-03-08T15:56:13.055Z,1.05
2023-03-08T15:58:40.128Z,0.47
2023-03-08T16:01:07.776Z,1.17
2023-03-08T16:03:36.588Z,0.80
2023-03-08T16:06:03.595Z,0.60
2023-03-08T16:08:30.209Z,0.70
2023-03-08T16:10:56.706Z,0.95
2023-03-08T16:13:23.164Z,0.70
2023-03-08T16:15:49.961Z,0.85
2023-03-08T16:18:16.629Z,0.60
2023-03-08T16:20:43.274Z,0.70
2023-03-08T16:23:10.016Z,0.60
2023-03-08T16:25:36.486Z,0.63
2023-03-08T16:28:03.011Z,1.30
2023-03-08T16:30:29.552Z,0.50
2023-03-08T16:32:57.133Z,0.63
2023-03-08T16:35:23.634Z,0.65
2023-03-08T16:37:52.952Z,0.70
2023-03-08T16:40:19.512Z,0.90
2023-03-08T16:42:47.289Z,0.65
2023-03-08T16:45:15.802Z,0.60
2023-03-08T16:47:43.944Z,0.60
2023-03-08T16:50:12.868Z,0.60
2023-03-08T16:52:39.675Z,0.70
2023-03-08T16:55:06.866Z,0.47
2023-03-08T16:57:33.311Z,0.60
2023-03-08T17:00:00.024Z,0.35
2023-03-08T17:02:26.482Z,0.63
2023-03-08T17:04:53.548Z,0.60
2023-03-08T17:07:19.914Z,0.60
2023-03-08T17:09:46.506Z,0.50
2023-03-08T17:12:14.173Z,0.60
2023-03-08T17:14:40.574Z,0.70
2023-03-08T17:17:07.306Z,0.77
2023-03-08T17:19:35.471Z,0.68
2023-03-08T17:22:02.174Z,0.75
2023-03-08T17:24:28.709Z,0.60
2023-03-08T17:26:55.229Z,0.90
2023-03-08T17:29:22.100Z,1.08
2023-03-08T17:31:48.934Z,1.08
2023-03-08T17:34:17.572Z,0.95
2023-03-08T17:36:44.148Z,1.40
2023-03-08T17:39:10.742Z,1.60
2023-03-08T17:41:38.652Z,2.13
2023-03-08T17:44:06.026Z,0.95
2023-03-08T17:46:32.775Z,1.20
2023-03-08T17:48:59.332Z,1.40
2023-03-08T17:51:28.635Z,1.05
2023-03-08T17:53:55.538Z,1.33
2023-03-08T17:56:25.059Z,1.02
2023-03-08T17:58:51.897Z,1.05
2023-03-08T18:01:26.583Z,1.20
2023-03-08T18:03:55.709Z,1.23
2023-03-08T18:06:40.036Z,1.02
2023-03-08T18:09:09.914Z,1.20
2023-03-08T18:11:36.565Z,0.83
2023-03-08T18:14:13.472Z,1.00
2023-03-08T18:16:41.134Z,1.00
2023-03-08T18:19:07.629Z,1.08
2023-03-08T18:21:36.023Z,1.10
2023-03-08T18:24:03.527Z,1.05
2023-03-08T18:26:29.924Z,0.95
2023-03-08T18:28:56.555Z,1.25
2023-03-08T18:31:25.064Z,0.93
2023-03-08T18:33:54.595Z,1.27
2023-03-08T18:36:21.480Z,1.10
2023-03-08T18:38:48.439Z,1.08
2023-03-08T18:41:23.288Z,1.50
2023-03-08T18:43:50.239Z,1.50
2023-03-08T18:46:17.545Z,0.93
2023-03-08T18:48:44.487Z,0.98
2023-03-08T18:51:11.302Z,0.90
2023-03-08T18:53:38.054Z,1.08
2023-03-08T18:56:05.218Z,0.88
2023-03-08T18:58:31.974Z,0.85
2023-03-08T19:00:58.625Z,0.95
2023-03-08T19:03:29.455Z,0.80
2023-03-08T19:05:56.440Z,1.05
2023-03-08T19:08:23.452Z,1.13
2023-03-08T19:10:49.992Z,0.90
2023-03-08T19:13:17.900Z,0.80
2023-03-08T19:15:44.418Z,0.95
2023-03-08T19:18:11.042Z,0.65
2023-03-08T19:20:40.197Z,0.90
2023-03-08T19:23:07.314Z,0.90
2023-03-08T19:25:46.090Z,1.00
2023-03-08T19:28:14.220Z,0.70
2023-03-08T19:30:53.587Z,0.70
2023-03-08T19:33:30.391Z,1.05
2023-03-08T19:35:58.274Z,0.80
2023-03-08T19:38:27.790Z,1.10
2023-03-08T19:40:54.522Z,0.90
2023-03-08T19:43:21.800Z,0.65
2023-03-08T19:45:50.937Z,0.60
2023-03-08T19:48:18.261Z,1.38
2023-03-08T19:50:45.962Z,0.98
2023-03-08T19:53:12.521Z,0.90
2023-03-08T19:55:48.284Z,0.80
2023-03-08T19:58:14.979Z,0.90
2023-03-08T20:00:41.724Z,0.93
2023-03-08T20:03:08.282Z,0.90
2023-03-08T20:05:40.729Z,1.10
2023-03-08T20:08:08.143Z,0.85
2023-03-08T20:10:35.508Z,1.08
2023-03-08T20:13:02.414Z,0.80
2023-03-08T20:15:29.391Z,1.08
2023-03-08T20:17:56.245Z,1.10
2023-03-08T20:20:22.977Z,1.15
2023-03-08T20:22:49.462Z,0.95
2023-03-08T20:25:16.202Z,1.02
2023-03-08T20:27:43.356Z,1.38
2023-03-08T20:30:11.783Z,1.02
2023-03-08T20:32:38.594Z,1.33
2023-03-08T20:35:06.325Z,0.90
2023-03-08T20:37:33.114Z,0.85
2023-03-08T20:39:59.933Z,1.30
2023-03-08T20:42:27.024Z,1.00
2023-03-08T20:44:53.707Z,1.10
2023-03-08T20:47:20.873Z,0.90
2023-03-08T20:49:47.381Z,1.00
2023-03-08T20:52:14.123Z,1.10
2023-03-08T20:54:40.688Z,0.93
2023-03-08T20:57:07.034Z,1.30
2023-03-08T20:59:33.511Z,1.50
2023-03-08T21:01:59.928Z,1.30
2023-03-08T21:04:26.664Z,1.27
2023-03-08T21:06:53.101Z,1.58
2023-03-08T21:09:19.568Z,1.48
2023-03-08T21:11:46.068Z,1.30
2023-03-08T21:14:12.841Z,1.20
2023-03-08T21:16:39.611Z,1.55
2023-03-08T21:19:06.667Z,1.20
2023-03-08T21:21:36.307Z,1.40
2023-03-08T21:24:12.473Z,1.85
2023-03-08T21:26:39.051Z,1.90
2023-03-08T21:29:08.853Z,1.95
2023-03-08T21:31:39.205Z,2.50
2023-03-08T21:34:06.712Z,2.53
2023-03-08T21:36:34.284Z,1.80
2023-03-08T21:39:00.812Z,2.72
2023-03-08T21:41:34.556Z,2.10
2023-03-08T21:44:05.323Z,1.30
2023-03-08T21:46:32.342Z,1.40
2023-03-08T21:48:58.979Z,1.67
2023-03-08T21:51:25.532Z,1.92
2023-03-08T21:53:53.366Z,1.55
2023-03-08T21:56:20.234Z,1.50
2023-03-08T21:58:46.687Z,1.35
2023-03-08T22:01:43.380Z,1.23
2023-03-08T22:04:09.979Z,1.48
2023-03-08T22:06:36.439Z,1.30
2023-03-08T22:09:05.039Z,1.38
2023-03-08T22:11:31.817Z,1.58
2023-03-08T22:14:00.026Z,1.50
2023-03-08T22:16:28.688Z,1.50
2023-03-08T22:18:57.933Z,1.60
2023-03-08T22:21:24.720Z,2.55
2023-03-08T22:23:57.200Z,4.18
2023-03-08T22:26:24.984Z,8.65
2023-03-08T22:28:53.237Z,6.93
2023-03-08T22:31:24.477Z,3.88
2023-03-08T22:33:52.562Z,2.90
2023-03-08T22:36:20.009Z,2.95
2023-03-08T22:38:46.701Z,3.75
2023-03-08T22:41:22.419Z,3.70
2023-03-08T22:43:49.687Z,4.32
2023-03-08T22:46:22.099Z,4.68
2023-03-08T22:48:50.702Z,4.15
2023-03-08T22:51:19.584Z,5.10
2023-03-08T22:53:46.115Z,6.43
2023-03-08T22:56:25.662Z,5.20
2023-03-08T22:58:52.525Z,5.72
2023-03-08T23:01:21.583Z,5.65
2023-03-08T23:03:48.811Z,5.70
2023-03-08T23:06:18.854Z,4.97
2023-03-08T23:08:46.455Z,6.22
2023-03-08T23:11:14.069Z,6.93
2023-03-08T23:13:40.700Z,4.88
2023-03-08T23:16:08.762Z,7.68
2023-03-08T23:18:35.684Z,4.18
2023-03-08T23:21:07.341Z,5.25
2023-03-08T23:23:36.368Z,4.78
2023-03-08T23:26:05.502Z,5.18
2023-03-08T23:28:33.076Z,4.90
2023-03-08T23:31:02.072Z,4.10
2023-03-08T23:33:28.848Z,3.40
2023-03-08T23:35:55.899Z,3.10
2023-03-08T23:38:22.592Z,3.40
2023-03-08T23:40:49.022Z,3.22
2023-03-08T23:43:15.426Z,3.00
2023-03-08T23:45:41.877Z,3.63
2023-03-08T23:48:08.265Z,3.92
2023-03-08T23:50:34.718Z,3.47
2023-03-08T23:53:01.119Z,3.08
2023-03-08T23:55:27.517Z,3.22
2023-03-08T23:57:54.175Z,2.80
